Time;durP1;ratioP1;P1;durP2;ratioP2;P2;SDS_P1;SDS_P2;PMS_P1;PMS_P2;Temp;Humidity;BMP_temperature;BMP_pressure;BME280_temperature;BME280_humidity;BME280_pressure;Samples;Min_cycle;Max_cycle;Signal;HPM_P1;HPM_P2
2023/03/01 00:00:46;;;;;;;16.98;12.25;;;;;;;-7.42;100.00;93411.22;2560543;23;20400;-87
2023/03/01 00:01:52;;;;;;;18.35;12.15;;;;;;;-7.43;100.00;93414.88;2572790;22;19996;-88
2023/03/01 00:02:56;;;;;;;19.17;13.15;;;;;;;-7.53;100.00;93415.13;2571921;23;20012;-88
2023/03/01 00:03:59;;;;;;;16.10;11.98;;;;;;;-7.54;100.00;93414.34;2560094;23;20915;-86
2023/03/01 00:05:07;;;;;;;15.50;12.18;;;;;;;-7.35;100.00;93417.53;2572469;23;20000;-89
2023/03/01 00:06:13;;;;;;;15.93;11.60;;;;;;;-7.47;100.00;93416.53;2573826;22;20463;-89
2023/03/01 00:07:15;;;;;;;16.52;11.63;;;;;;;-7.49;100.00;93411.63;2572253;23;21129;-88
2023/03/01 00:08:19;;;;;;;14.75;12.07;;;;;;;-7.54;100.00;93411.00;2558879;23;20025;-88
2023/03/01 00:09:24;;;;;;;17.02;12.38;;;;;;;-7.53;100.00;93417.72;2572045;23;20310;-86
2023/03/01 00:10:26;;;;;;;18.13;12.35;;;;;;;-7.61;100.00;93416.59;2560284;23;20001;-88
2023/03/01 00:11:30;;;;;;;18.55;13.35;;;;;;;-7.54;100.00;93418.78;2559377;23;20009;-90
2023/03/01 00:12:32;;;;;;;18.38;13.60;;;;;;;-7.61;100.00;93417.34;2560237;23;20396;-89
2023/03/01 00:13:37;;;;;;;17.60;12.75;;;;;;;-7.62;100.00;93413.22;2559210;23;20969;-89
2023/03/01 00:14:43;;;;;;;16.65;11.82;;;;;;;-7.69;100.00;93418.03;2561413;23;20416;-87
2023/03/01 00:15:45;;;;;;;16.10;11.70;;;;;;;-7.68;100.00;93411.81;2588107;22;20403;-86
2023/03/01 00:16:48;;;;;;;17.20;12.85;;;;;;;-7.66;100.00;93407.09;2587439;22;20011;-85
2023/03/01 00:17:51;;;;;;;18.35;12.55;;;;;;;-7.69;100.00;93414.69;2574693;23;20396;-87
2023/03/01 00:18:56;;;;;;;15.27;10.77;;;;;;;-7.67;100.00;93415.19;2586991;22;20355;-87
2023/03/01 00:19:57;;;;;;;17.20;11.63;;;;;;;-7.71;100.00;93409.03;2598622;22;20414;-87
2023/03/01 00:21:09;;;;;;;16.42;12.55;;;;;;;-7.71;100.00;93403.84;2584020;22;20008;-88
2023/03/01 00:22:10;;;;;;;18.50;12.05;;;;;;;-7.51;100.00;93397.41;2573281;23;20396;-87
2023/03/01 00:23:14;;;;;;;15.93;12.27;;;;;;;-7.50;100.00;93407.50;2583416;22;20030;-89
2023/03/01 00:24:18;;;;;;;16.60;12.07;;;;;;;-7.68;100.00;93406.63;2583676;22;20038;-87
2023/03/01 00:25:21;;;;;;;15.50;12.43;;;;;;;-7.69;100.00;93399.88;2572313;22;20874;-89
2023/03/01 00:26:25;;;;;;;18.25;12.88;;;;;;;-7.70;100.00;93405.38;2596964;22;20006;-88
2023/03/01 00:27:26;;;;;;;13.98;11.63;;;;;;;-7.70;100.00;93405.38;2571093;23;20490;-88
2023/03/01 00:28:34;;;;;;;16.90;12.50;;;;;;;-7.70;100.00;93407.97;2548203;23;20455;-88
2023/03/01 00:29:38;;;;;;;18.00;12.40;;;;;;;-7.73;100.00;93409.31;2560737;23;20411;-89
2023/03/01 00:30:39;;;;;;;16.75;12.15;;;;;;;-7.78;100.00;93399.06;2584149;22;20811;-89
2023/03/01 00:31:44;;;;;;;18.35;11.88;;;;;;;-7.80;100.00;93397.81;2583121;23;20013;-88
2023/03/01 00:32:45;;;;;;;17.83;11.88;;;;;;;-7.82;100.00;93397.34;2572328;22;20001;-88
2023/03/01 00:33:59;;;;;;;17.83;12.23;;;;;;;-7.82;100.00;93392.16;2570849;23;20388;-88
2023/03/01 00:35:01;;;;;;;17.17;12.52;;;;;;;-7.87;100.00;93396.41;2575419;22;20380;-90
2023/03/01 00:36:05;;;;;;;17.42;11.82;;;;;;;-7.84;100.00;93402.06;2584214;22;20734;-88
2023/03/01 00:37:07;;;;;;;15.50;12.15;;;;;;;-7.89;100.00;93400.34;2570928;23;20902;-88
2023/03/01 00:38:13;;;;;;;14.50;11.70;;;;;;;-7.89;100.00;93397.75;2570877;23;20711;-89
2023/03/01 00:39:15;;;;;;;18.50;12.55;;;;;;;-7.94;100.00;93396.06;2560374;23;20396;-89
2023/03/01 00:40:16;;;;;;;14.88;11.65;;;;;;;-7.95;100.00;93398.91;2558622;23;20485;-88
2023/03/01 00:41:19;;;;;;;15.65;11.95;;;;;;;-7.94;100.00;93401.22;2570876;22;20399;-88
2023/03/01 00:42:24;;;;;;;16.50;12.30;;;;;;;-7.80;100.00;93398.59;2570950;23;20412;-88
2023/03/01 00:43:29;;;;;;;15.02;11.77;;;;;;;-7.75;100.00;93389.94;2560090;23;20991;-88
2023/03/01 00:44:34;;;;;;;17.50;12.57;;;;;;;-7.92;100.00;93395.75;2559200;23;20905;-88
2023/03/01 00:45:37;;;;;;;17.98;12.65;;;;;;;-7.91;100.00;93392.84;2572627;22;20450;-87
2023/03/01 00:46:38;;;;;;;20.35;12.88;;;;;;;-8.00;100.00;93393.84;2571489;23;20404;-89
2023/03/01 00:47:39;;;;;;;18.08;12.32;;;;;;;-7.94;100.00;93395.28;2571205;23;20415;-89
2023/03/01 00:48:51;;;;;;;16.52;11.80;;;;;;;-7.95;100.00;93396.31;2573795;22;20409;-88
2023/03/01 00:49:52;;;;;;;15.07;11.68;;;;;;;-8.09;100.00;93400.78;2571256;23;20503;-89
2023/03/01 00:50:53;;;;;;;16.85;11.93;;;;;;;-8.05;100.00;93397.31;2558438;23;20767;-89
2023/03/01 00:52:03;;;;;;;16.13;11.68;;;;;;;-7.98;100.00;93396.94;2559348;23;20976;-88
2023/03/01 00:53:04;;;;;;;13.50;10.82;;;;;;;-7.99;100.00;93393.56;2573825;22;20380;-90
2023/03/01 00:54:09;;;;;;;17.65;11.98;;;;;;;-7.98;100.00;93399.53;2571153;23;20400;-88
2023/03/01 00:55:12;;;;;;;17.80;12.07;;;;;;;-8.05;100.00;93393.97;2560090;23;20465;-88
2023/03/01 00:56:14;;;;;;;18.77;12.18;;;;;;;-8.09;100.00;93398.97;2558910;23;20795;-88
2023/03/01 00:57:15;;;;;;;15.98;11.95;;;;;;;-8.04;100.00;93398.06;2558707;23;20428;-88
2023/03/01 00:58:16;;;;;;;15.60;12.32;;;;;;;-8.04;100.00;93405.84;2570640;23;20410;-88
2023/03/01 00:59:17;;;;;;;16.65;12.75;;;;;;;-8.07;100.00;93396.84;2557723;23;20009;-89
2023/03/01 01:00:20;;;;;;;16.42;11.95;;;;;;;-8.05;100.00;93391.38;2558600;23;20009;-88
2023/03/01 01:01:27;;;;;;;16.90;12.32;;;;;;;-8.03;100.00;93395.22;2571123;22;20404;-89
2023/03/01 01:02:28;;;;;;;16.38;12.38;;;;;;;-8.12;100.00;93397.72;2571982;23;21066;-89
2023/03/01 01:03:30;;;;;;;18.33;12.27;;;;;;;-8.16;100.00;93401.97;2558662;23;20443;-89
2023/03/01 01:04:39;;;;;;;16.55;12.85;;;;;;;-8.14;100.00;93392.06;2558215;23;20420;-88
2023/03/01 01:05:40;;;;;;;18.10;12.13;;;;;;;-8.00;100.00;93384.22;2582915;23;20413;-89
2023/03/01 01:06:43;;;;;;;16.05;11.90;;;;;;;-8.04;100.00;93391.06;2570621;23;20008;-89
2023/03/01 01:07:44;;;;;;;17.27;12.15;;;;;;;-8.01;100.00;93384.53;2570754;23;20407;-90
2023/03/01 01:08:49;;;;;;;16.73;12.25;;;;;;;-7.97;100.00;93388.84;2558234;23;20032;-90
2023/03/01 01:09:50;;;;;;;18.00;12.35;;;;;;;-7.94;100.00;93380.50;2559566;23;20476;-89
2023/03/01 01:10:51;;;;;;;16.08;12.45;;;;;;;-7.92;100.00;93391.31;2570286;23;20415;-88
2023/03/01 01:11:52;;;;;;;18.75;11.98;;;;;;;-7.81;100.00;93383.31;2570309;23;20011;-88
2023/03/01 01:12:53;;;;;;;16.42;12.52;;;;;;;-7.89;100.00;93385.56;2558038;23;20008;-88
2023/03/01 01:13:55;;;;;;;19.33;12.13;;;;;;;-7.84;100.00;93389.88;2570284;22;20394;-88
2023/03/01 01:14:58;;;;;;;17.77;12.90;;;;;;;-7.79;100.00;93384.56;2570826;23;20083;-88
2023/03/01 01:16:02;;;;;;;16.30;12.02;;;;;;;-7.76;100.00;93373.59;2559477;23;20404;-90
2023/03/01 01:17:07;;;;;;;15.75;12.30;;;;;;;-7.84;100.00;93370.94;2559386;23;20534;-89
2023/03/01 01:18:11;;;;;;;17.20;12.25;;;;;;;-7.77;100.00;93377.25;2573592;22;20411;-89
2023/03/01 01:19:13;;;;;;;17.25;12.15;;;;;;;-7.72;100.00;93369.34;2583309;22;20497;-90
2023/03/01 01:20:17;;;;;;;18.73;12.73;;;;;;;-7.63;100.00;93372.78;2568554;23;20435;-88
2023/03/01 01:21:24;;;;;;;16.15;12.30;;;;;;;-7.57;100.00;93364.84;2571777;22;20407;-87
2023/03/01 01:22:25;;;;;;;18.35;13.60;;;;;;;-7.55;100.00;93365.31;2571345;23;20135;-89
2023/03/01 01:23:26;;;;;;;17.73;12.60;;;;;;;-7.52;100.00;93370.69;2558493;23;20440;-89
2023/03/01 01:24:27;;;;;;;15.82;12.25;;;;;;;-7.48;100.00;93366.44;2557818;23;20032;-86
2023/03/01 01:25:29;;;;;;;17.15;12.77;;;;;;;-7.51;100.00;93366.25;2558322;23;20001;-90
2023/03/01 01:26:32;;;;;;;17.67;12.98;;;;;;;-7.42;100.00;93361.88;2570724;23;20843;-88
2023/03/01 01:27:33;;;;;;;17.15;12.88;;;;;;;-7.40;100.00;93365.72;2571144;23;20909;-88
2023/03/01 01:28:34;;;;;;;18.75;14.25;;;;;;;-7.32;100.00;93361.66;2570428;23;20482;-88
2023/03/01 01:29:38;;;;;;;16.42;12.35;;;;;;;-7.26;100.00;93354.50;2557988;23;20008;-90
2023/03/01 01:30:41;;;;;;;16.80;12.73;;;;;;;-7.31;100.00;93355.38;2571986;22;20416;-90
2023/03/01 01:31:43;;;;;;;17.55;13.15;;;;;;;-7.35;100.00;93354.44;2570679;23;20498;-87
2023/03/01 01:32:44;;;;;;;18.20;13.07;;;;;;;-7.27;100.00;93345.94;2558577;23;20005;-88
2023/03/01 01:33:46;;;;;;;16.73;12.82;;;;;;;-7.26;100.00;93350.06;2570644;22;20419;-87
2023/03/01 01:34:47;;;;;;;19.85;13.18;;;;;;;-7.24;100.00;93340.16;2570374;23;20483;-90
2023/03/01 01:35:48;;;;;;;17.02;13.18;;;;;;;-7.28;100.00;93339.22;2570384;22;20404;-89
2023/03/01 01:36:51;;;;;;;20.08;14.27;;;;;;;-7.18;100.00;93338.19;2570179;23;20004;-89
2023/03/01 01:37:52;;;;;;;18.40;14.23;;;;;;;-7.17;100.00;93332.69;2571015;22;20091;-89
2023/03/01 01:38:56;;;;;;;17.33;12.25;;;;;;;-7.14;100.00;93337.28;2570740;23;20399;-88
2023/03/01 01:40:04;;;;;;;20.30;13.50;;;;;;;-7.03;100.00;93337.78;2583468;22;20443;-88
2023/03/01 01:41:06;;;;;;;17.05;12.23;;;;;;;-6.95;100.00;93334.44;2583107;23;21088;-89
2023/03/01 01:42:16;;;;;;;16.67;12.90;;;;;;;-6.87;100.00;93341.50;2558501;23;20421;-89
2023/03/01 01:43:30;;;;;;;18.80;13.15;;;;;;;-6.80;100.00;93335.09;2574369;22;20015;-89
2023/03/01 01:44:34;;;;;;;18.13;13.55;;;;;;;-6.85;100.00;93331.59;2572933;23;20411;-90
2023/03/01 01:45:36;;;;;;;21.25;13.23;;;;;;;-6.85;100.00;93339.41;2570958;23;20024;-88
2023/03/01 01:47:00;;;;;;;20.27;13.90;;;;;;;-6.75;100.00;93333.16;2570993;22;20011;-88
2023/03/01 01:48:10;;;;;;;18.48;12.68;;;;;;;-6.80;100.00;93325.50;2575509;23;20720;-90
2023/03/01 01:49:17;;;;;;;18.90;13.05;;;;;;;-6.87;100.00;93330.34;2561637;23;20404;-87
2023/03/01 01:50:19;;;;;;;20.98;12.48;;;;;;;-6.84;100.00;93321.97;2560624;23;20036;-89
2023/03/01 01:51:26;;;;;;;17.95;12.85;;;;;;;-6.81;100.00;93318.75;2558834;23;20059;-89
2023/03/01 01:52:34;;;;;;;17.17;12.88;;;;;;;-6.79;100.00;93334.06;2573231;22;20001;-89
2023/03/01 01:54:15;;;;;;;17.95;12.75;;;;;;;-6.75;100.00;93324.59;2571899;23;20008;-88
2023/03/01 01:55:21;;;;;;;19.13;12.52;;;;;;;-6.64;100.00;93329.19;2574410;23;20392;-87
2023/03/01 01:56:26;;;;;;;19.30;13.43;;;;;;;-6.68;100.00;93327.50;2560607;23;20088;-89
2023/03/01 01:57:48;;;;;;;18.60;12.93;;;;;;;-6.69;100.00;93331.94;2572220;22;20012;-88
2023/03/01 01:58:50;;;;;;;17.38;12.52;;;;;;;-6.68;100.00;93327.50;2574835;23;20004;-88
2023/03/01 01:59:56;;;;;;;19.25;14.27;;;;;;;-6.71;100.00;93331.47;2558196;23;20425;-89
2023/03/01 02:00:58;;;;;;;19.33;13.35;;;;;;;-6.66;100.00;93327.97;2559910;23;20016;-87
2023/03/01 02:02:03;;;;;;;18.02;13.63;;;;;;;-6.59;100.00;93331.63;2558125;23;20008;-91
2023/03/01 02:03:09;;;;;;;19.00;13.60;;;;;;;-6.53;100.00;93334.13;2560039;23;20004;-87
2023/03/01 02:04:11;;;;;;;19.52;14.07;;;;;;;-6.53;100.00;93323.72;2571498;23;20000;-89
2023/03/01 02:05:21;;;;;;;21.48;14.65;;;;;;;-6.42;100.00;93330.16;2558193;23;20436;-88
2023/03/01 02:06:31;;;;;;;21.30;14.75;;;;;;;-6.29;100.00;93323.28;2574443;22;20450;-87
2023/03/01 02:07:33;;;;;;;20.70;14.43;;;;;;;-6.29;100.00;93321.44;2572219;23;20031;-87
2023/03/01 02:08:38;;;;;;;18.52;14.38;;;;;;;-6.27;100.00;93318.56;2558281;23;20036;-87
2023/03/01 02:09:40;;;;;;;20.67;14.60;;;;;;;-6.22;100.00;93321.75;2559663;23;20044;-89
2023/03/01 02:10:42;;;;;;;20.67;14.63;;;;;;;-6.12;100.00;93316.25;2558533;23;20742;-86
2023/03/01 02:11:47;;;;;;;19.33;14.90;;;;;;;-6.06;100.00;93313.50;2570382;22;20008;-89
2023/03/01 02:12:48;;;;;;;21.80;15.18;;;;;;;-6.01;100.00;93313.34;2583507;22;20007;-86
2023/03/01 02:13:52;;;;;;;22.50;15.70;;;;;;;-5.99;100.00;93314.56;2570315;23;20005;-88
2023/03/01 02:14:54;;;;;;;22.33;15.50;;;;;;;-5.93;100.00;93321.13;2572022;22;20004;-86
2023/03/01 02:15:56;;;;;;;23.48;15.70;;;;;;;-5.89;100.00;93311.63;2595354;22;19999;-86
2023/03/01 02:16:57;;;;;;;24.85;15.43;;;;;;;-5.87;100.00;93299.06;2570258;23;20043;-87
2023/03/01 02:17:58;;;;;;;24.63;15.82;;;;;;;-5.84;100.00;93314.09;2558060;23;20009;-87
2023/03/01 02:19:00;;;;;;;23.13;16.23;;;;;;;-5.82;100.00;93311.16;2570356;22;20000;-86
2023/03/01 02:20:28;;;;;;;23.40;16.17;;;;;;;-5.79;100.00;93312.38;2570697;23;20010;-87
2023/03/01 02:21:51;;;;;;;21.80;14.80;;;;;;;-5.69;100.00;93305.03;2581318;22;20057;-86
2023/03/01 02:22:54;;;;;;;21.27;14.63;;;;;;;-5.60;100.00;93307.59;2587204;22;20010;-87
2023/03/01 02:23:58;;;;;;;23.83;15.50;;;;;;;-5.62;100.00;93304.53;2570782;23;20083;-87
2023/03/01 02:25:20;;;;;;;20.13;14.43;;;;;;;-5.47;100.00;93304.06;2571456;22;20054;-85
2023/03/01 02:26:40;;;;;;;18.48;14.45;;;;;;;-5.36;100.00;93301.88;2574716;23;20019;-86
2023/03/01 02:28:05;;;;;;;20.80;14.50;;;;;;;-5.42;100.00;93310.94;2565321;23;20083;-86
2023/03/01 02:29:06;;;;;;;21.30;14.55;;;;;;;-5.38;100.00;93306.63;2567751;23;20008;-89
2023/03/01 02:30:12;;;;;;;21.10;14.73;;;;;;;-5.45;100.00;93298.53;2570469;22;20050;-89
2023/03/01 02:32:37;;;;;;;19.30;14.00;;;;;;;-5.34;100.00;93300.50;2580289;22;20011;-87
2023/03/01 02:33:39;;;;;;;21.83;15.43;;;;;;;-5.23;100.00;93300.91;2582432;23;20023;-86
2023/03/01 02:34:41;;;;;;;20.42;14.73;;;;;;;-5.13;100.00;93289.41;2582702;23;20335;-89
2023/03/01 02:35:44;;;;;;;18.65;14.10;;;;;;;-5.13;100.00;93282.34;2570321;22;20039;-88
2023/03/01 02:36:55;;;;;;;20.83;15.07;;;;;;;-5.21;100.00;93287.59;2570745;23;20371;-90
2023/03/01 02:38:00;;;;;;;20.05;14.15;;;;;;;-5.21;100.00;93279.78;2561705;23;20004;-87
2023/03/01 02:39:04;;;;;;;21.08;15.25;;;;;;;-5.24;100.00;93283.00;2559333;23;20017;-86
2023/03/01 02:40:11;;;;;;;17.90;14.68;;;;;;;-5.27;100.00;93284.38;2571259;22;20043;-88
2023/03/01 02:41:22;;;;;;;20.05;14.57;;;;;;;-5.19;100.00;93278.38;2571828;23;20359;-86
2023/03/01 02:42:30;;;;;;;20.48;14.60;;;;;;;-5.18;100.00;93279.13;2574531;22;20067;-86
2023/03/01 02:43:32;;;;;;;21.95;14.80;;;;;;;-5.12;100.00;93283.09;2584179;22;20064;-88
2023/03/01 02:44:34;;;;;;;21.40;15.18;;;;;;;-5.08;100.00;93274.34;2570739;23;20131;-86
2023/03/01 02:45:42;;;;;;;21.55;14.93;;;;;;;-5.08;100.00;93281.41;2582890;22;20007;-86
2023/03/01 02:46:47;;;;;;;20.88;14.82;;;;;;;-5.08;100.00;93276.97;2572080;23;20434;-86
2023/03/01 02:47:49;;;;;;;20.85;15.68;;;;;;;-5.09;100.00;93278.03;2571934;22;20000;-87
2023/03/01 02:48:56;;;;;;;21.70;14.70;;;;;;;-4.98;100.00;93275.84;2570394;23;20013;-89
2023/03/01 02:49:57;;;;;;;22.10;15.20;;;;;;;-5.00;100.00;93278.00;2571350;23;20001;-87
2023/03/01 02:51:34;;;;;;;21.83;15.85;;;;;;;-4.99;100.00;93276.91;2570304;23;20420;-87
2023/03/01 02:52:46;;;;;;;21.35;15.32;;;;;;;-4.95;100.00;93282.28;2577769;23;20036;-89
2023/03/01 02:54:02;;;;;;;17.65;14.13;;;;;;;-4.91;100.00;93276.13;2575504;22;20011;-87
2023/03/01 02:55:11;;;;;;;20.05;14.63;;;;;;;-4.90;100.00;93276.88;2572381;23;20035;-87
2023/03/01 02:56:15;;;;;;;21.33;15.70;;;;;;;-4.89;100.00;93279.16;2561802;23;20016;-89
2023/03/01 02:57:23;;;;;;;20.40;14.93;;;;;;;-4.90;100.00;93279.47;2584987;22;20015;-91
2023/03/01 02:58:26;;;;;;;21.88;15.05;;;;;;;-4.87;100.00;93277.03;2582505;23;20412;-87
2023/03/01 02:59:31;;;;;;;18.70;14.52;;;;;;;-4.82;100.00;93276.06;2558698;23;20416;-86
2023/03/01 03:00:46;;;;;;;18.45;15.07;;;;;;;-4.86;100.00;93280.38;2559145;23;20087;-88
2023/03/01 03:01:57;;;;;;;20.65;14.95;;;;;;;-4.83;100.00;93274.53;2564606;23;20005;-88
2023/03/01 03:02:58;;;;;;;19.30;14.13;;;;;;;-4.78;100.00;93274.38;2571457;23;20005;-86
2023/03/01 03:04:02;;;;;;;21.30;14.65;;;;;;;-4.63;100.00;93271.19;2557923;23;20001;-87
2023/03/01 03:05:10;;;;;;;20.23;15.13;;;;;;;-4.62;100.00;93272.72;2559034;23;20025;-87
2023/03/01 03:06:12;;;;;;;22.33;15.15;;;;;;;-4.69;100.00;93272.47;2573079;22;20071;-87
2023/03/01 03:07:13;;;;;;;19.65;14.63;;;;;;;-4.64;100.00;93268.91;2570430;23;20088;-86
2023/03/01 03:08:23;;;;;;;22.10;15.27;;;;;;;-4.50;100.00;93269.44;2570315;22;20008;-87
2023/03/01 03:09:25;;;;;;;19.08;14.93;;;;;;;-4.59;100.00;93260.91;2584823;22;20000;-86
2023/03/01 03:10:28;;;;;;;19.20;14.68;;;;;;;-4.61;100.00;93270.88;2582687;22;20011;-87
2023/03/01 03:11:30;;;;;;;20.60;15.23;;;;;;;-4.66;100.00;93268.44;2570399;23;20009;-89
2023/03/01 03:12:33;;;;;;;19.73;14.95;;;;;;;-4.66;100.00;93264.00;2558228;23;20005;-86
2023/03/01 03:13:35;;;;;;;20.33;14.65;;;;;;;-4.63;100.00;93260.75;2571303;22;20043;-90
2023/03/01 03:14:42;;;;;;;21.65;15.30;;;;;;;-4.59;100.00;93264.28;2570244;23;20047;-87
2023/03/01 03:15:47;;;;;;;20.70;15.63;;;;;;;-4.52;100.00;93263.00;2559974;23;20009;-89
2023/03/01 03:16:50;;;;;;;22.30;15.23;;;;;;;-4.60;100.00;93264.59;2559301;23;20399;-88
2023/03/01 03:17:52;;;;;;;20.58;15.05;;;;;;;-4.57;100.00;93259.47;2571159;22;20004;-87
2023/03/01 03:18:53;;;;;;;20.80;16.02;;;;;;;-4.60;100.00;93257.53;2570365;23;20520;-87
2023/03/01 03:19:56;;;;;;;22.98;16.00;;;;;;;-4.58;100.00;93259.81;2558624;23;20104;-88
2023/03/01 03:20:58;;;;;;;22.00;16.05;;;;;;;-4.58;100.00;93260.56;2582647;22;20481;-87
2023/03/01 03:21:59;;;;;;;22.80;15.45;;;;;;;-4.60;100.00;93260.13;2595379;22;20008;-88
2023/03/01 03:23:00;;;;;;;20.80;15.80;;;;;;;-4.57;100.00;93259.47;2583491;23;20026;-86
2023/03/01 03:24:02;;;;;;;19.55;15.02;;;;;;;-4.60;100.00;93254.16;2571087;23;20009;-86
2023/03/01 03:25:05;;;;;;;18.90;14.88;;;;;;;-4.52;100.00;93261.16;2571555;22;20000;-87
2023/03/01 03:26:07;;;;;;;21.75;16.27;;;;;;;-4.49;100.00;93257.16;2571672;23;20001;-88
2023/03/01 03:27:11;;;;;;;19.92;14.57;;;;;;;-4.52;100.00;93258.56;2559339;23;20005;-89
2023/03/01 03:28:13;;;;;;;21.20;14.73;;;;;;;-4.48;100.00;93250.84;2559570;23;20467;-87
2023/03/01 03:29:17;;;;;;;23.33;15.60;;;;;;;-4.51;100.00;93252.25;2584190;22;20043;-89
2023/03/01 03:30:21;;;;;;;21.70;16.05;;;;;;;-4.43;100.00;93251.44;2584356;22;20407;-89
2023/03/01 03:31:29;;;;;;;20.25;14.90;;;;;;;-4.45;100.00;93245.75;2572236;23;20000;-87
2023/03/01 03:32:31;;;;;;;22.08;15.73;;;;;;;-4.48;100.00;93246.38;2560974;23;20009;-88
2023/03/01 03:33:35;;;;;;;19.00;14.35;;;;;;;-4.52;100.00;93242.91;2572252;22;20004;-88
2023/03/01 03:34:41;;;;;;;20.48;15.15;;;;;;;-4.35;100.00;93249.81;2571198;23;20776;-87
2023/03/01 03:35:49;;;;;;;19.45;15.18;;;;;;;-4.25;100.00;93248.72;2559635;23;20005;-85
2023/03/01 03:36:59;;;;;;;22.08;15.13;;;;;;;-4.43;100.00;93248.84;2561091;23;20001;-87
2023/03/01 03:38:06;;;;;;;;;;;;;;;-4.18;100.00;93244.47;2562697;23;20008;-86
2023/03/01 03:39:10;;;;;;;17.73;13.35;;;;;;;-4.32;100.00;93252.56;2573469;22;20366;-85
2023/03/01 03:40:16;;;;;;;21.70;14.18;;;;;;;-4.41;100.00;93257.09;2572031;23;20005;-86
2023/03/01 03:41:22;;;;;;;20.80;15.18;;;;;;;-4.45;100.00;93250.97;2560757;23;20059;-86
2023/03/01 03:42:25;;;;;;;21.02;15.32;;;;;;;-4.49;100.00;93255.31;2572263;22;20044;-89
2023/03/01 03:43:26;;;;;;;20.98;15.02;;;;;;;-4.41;100.00;93253.72;2583902;22;20057;-90
2023/03/01 03:44:37;;;;;;;20.17;14.93;;;;;;;-4.43;100.00;93254.06;2570750;23;20000;-86
2023/03/01 03:45:54;;;;;;;20.73;14.40;;;;;;;-4.19;100.00;93257.84;2588071;22;20010;-87
2023/03/01 03:46:57;;;;;;;21.73;14.80;;;;;;;-4.25;100.00;93251.31;2595939;22;20073;-87
2023/03/01 03:48:01;;;;;;;19.88;14.93;;;;;;;-4.36;100.00;93251.69;2571387;23;20079;-88
2023/03/01 03:49:02;;;;;;;21.95;15.55;;;;;;;-4.40;100.00;93253.41;2559958;23;20051;-87
2023/03/01 03:50:04;;;;;;;21.58;15.38;;;;;;;-4.43;100.00;93256.66;2570891;23;20001;-87
2023/03/01 03:51:06;;;;;;;21.27;15.38;;;;;;;-4.48;100.00;93246.38;2596003;22;20091;-88
2023/03/01 03:52:13;;;;;;;20.75;16.10;;;;;;;-4.45;100.00;93242.41;2570971;23;20001;-87
2023/03/01 03:53:15;;;;;;;19.13;15.32;;;;;;;-4.47;100.00;93247.19;2573109;22;20072;-85
2023/03/01 03:54:17;;;;;;;21.70;16.10;;;;;;;-4.48;100.00;93249.00;2570766;23;20407;-86
2023/03/01 03:55:19;;;;;;;22.75;15.57;;;;;;;-4.49;100.00;93238.88;2558581;23;20004;-88
2023/03/01 03:56:20;;;;;;;19.92;15.27;;;;;;;-4.39;100.00;93244.50;2583623;22;20000;-88
2023/03/01 03:57:21;;;;;;;22.40;16.40;;;;;;;-4.28;100.00;93241.50;2583329;23;20062;-87
2023/03/01 03:58:24;;;;;;;19.20;15.10;;;;;;;-4.15;100.00;93240.47;2558712;23;20005;-85
2023/03/01 03:59:25;;;;;;;19.17;14.88;;;;;;;-4.13;100.00;93239.06;2572135;22;20008;-87
2023/03/01 04:00:26;;;;;;;20.20;14.57;;;;;;;-4.24;100.00;93240.53;2570775;23;20439;-87
2023/03/01 04:01:27;;;;;;;21.92;16.23;;;;;;;-4.33;100.00;93232.78;2570450;23;20000;-84
2023/03/01 04:02:41;;;;;;;21.42;15.07;;;;;;;-4.21;100.00;93237.31;2583229;23;20007;-88
2023/03/01 04:03:46;;;;;;;20.98;15.40;;;;;;;-4.10;100.00;93235.06;2573048;23;20019;-88
2023/03/01 04:04:50;;;;;;;21.25;14.70;;;;;;;-4.17;100.00;93240.00;2560349;23;20040;-87
2023/03/01 04:05:52;;;;;;;21.00;15.25;;;;;;;-4.15;100.00;93236.00;2572249;22;20004;-86
2023/03/01 04:06:53;;;;;;;19.98;15.20;;;;;;;-4.13;100.00;93238.28;2570710;23;20039;-87
2023/03/01 04:08:06;;;;;;;19.83;14.77;;;;;;;-3.91;100.00;93227.50;2571284;23;20032;-85
2023/03/01 04:09:07;;;;;;;20.38;15.13;;;;;;;-3.98;100.00;93229.13;2562562;23;20012;-86
2023/03/01 04:10:13;;;;;;;21.77;15.93;;;;;;;-4.10;100.00;93229.84;2558261;23;20008;-87
2023/03/01 04:11:26;;;;;;;20.95;14.93;;;;;;;-4.15;100.00;93228.19;2572732;22;20074;-87
2023/03/01 04:12:27;;;;;;;21.23;15.10;;;;;;;-4.25;100.00;93220.75;2573439;23;20079;-88
2023/03/01 04:13:28;;;;;;;19.30;15.35;;;;;;;-4.22;100.00;93227.94;2558034;23;20001;-85
2023/03/01 04:14:29;;;;;;;19.45;15.18;;;;;;;-4.24;100.00;93226.75;2558303;23;20429;-86
2023/03/01 04:15:32;;;;;;;24.92;17.13;;;;;;;-4.29;100.00;93224.31;2558452;23;20459;-88
2023/03/01 04:16:33;;;;;;;23.65;15.73;;;;;;;-4.26;100.00;93229.66;2571562;22;20440;-89
2023/03/01 04:17:34;;;;;;;19.83;15.60;;;;;;;-4.27;100.00;93224.75;2570744;23;20012;-88
2023/03/01 04:18:35;;;;;;;21.88;16.27;;;;;;;-4.31;100.00;93228.00;2558050;23;20080;-87
2023/03/01 04:19:36;;;;;;;21.65;15.95;;;;;;;-4.35;100.00;93221.13;2558308;23;20036;-86
2023/03/01 04:20:37;;;;;;;24.92;16.17;;;;;;;-4.33;100.00;93224.19;2558280;23;20005;-86
2023/03/01 04:21:38;;;;;;;18.83;14.88;;;;;;;-4.33;100.00;93227.56;2558663;23;20088;-88
2023/03/01 04:22:40;;;;;;;20.02;15.45;;;;;;;-4.27;100.00;93228.13;2583404;22;20012;-87
2023/03/01 04:23:41;;;;;;;23.67;16.20;;;;;;;-4.20;100.00;93230.25;2595936;22;20010;-85
2023/03/01 04:24:44;;;;;;;22.98;16.10;;;;;;;-4.22;100.00;93230.53;2583258;22;20000;-88
2023/03/01 04:25:54;;;;;;;21.27;15.85;;;;;;;-4.26;100.00;93226.28;2570858;23;20004;-87
2023/03/01 04:26:58;;;;;;;20.52;15.23;;;;;;;-4.19;100.00;93226.53;2562058;23;20005;-88
2023/03/01 04:28:01;;;;;;;21.05;15.38;;;;;;;-4.26;100.00;93232.25;2583723;22;20000;-88
2023/03/01 04:29:04;;;;;;;22.02;16.02;;;;;;;-4.27;100.00;93228.13;2583697;22;20394;-85
2023/03/01 04:30:06;;;;;;;22.52;15.82;;;;;;;-4.23;100.00;93223.03;2571350;23;20507;-86
2023/03/01 04:31:13;;;;;;;21.45;15.70;;;;;;;-4.20;100.00;93230.25;2558976;23;20005;-86
2023/03/01 04:32:17;;;;;;;18.83;15.60;;;;;;;-4.28;100.00;93225.84;2573091;22;20411;-86
2023/03/01 04:33:26;;;;;;;22.23;15.50;;;;;;;-4.26;100.00;93229.66;2584731;22;20142;-87
2023/03/01 04:34:28;;;;;;;19.70;15.80;;;;;;;-4.20;100.00;93225.03;2596373;22;20006;-86
2023/03/01 04:35:31;;;;;;;21.48;16.50;;;;;;;-4.19;100.00;93221.31;2596119;22;20003;-86
2023/03/01 04:36:32;;;;;;;25.05;16.90;;;;;;;-4.20;100.00;93222.41;2570525;23;20458;-85
2023/03/01 04:37:42;;;;;;;20.88;15.88;;;;;;;-4.18;100.00;93226.22;2570979;22;20000;-85
2023/03/01 04:38:47;;;;;;;18.80;15.07;;;;;;;-4.19;100.00;93222.06;2572451;23;20027;-85
2023/03/01 04:39:48;;;;;;;21.27;15.88;;;;;;;-4.09;100.00;93211.22;2571998;22;20016;-86
2023/03/01 04:40:49;;;;;;;20.95;16.00;;;;;;;-3.99;100.00;93214.56;2570267;23;20503;-88
2023/03/01 04:41:50;;;;;;;21.55;16.05;;;;;;;-4.00;100.00;93221.59;2557744;23;20027;-85
2023/03/01 04:42:53;;;;;;;21.65;15.75;;;;;;;-4.14;100.00;93224.50;2558344;23;20282;-85
2023/03/01 04:44:04;;;;;;;20.27;15.60;;;;;;;-4.18;100.00;93218.38;2572550;22;20001;-85
2023/03/01 04:45:12;;;;;;;20.08;15.27;;;;;;;-4.10;100.00;93217.53;2572589;23;20000;-86
2023/03/01 04:46:16;;;;;;;21.05;16.13;;;;;;;-4.14;100.00;93219.28;2584800;22;20007;-88
2023/03/01 04:47:18;;;;;;;24.83;16.55;;;;;;;-4.18;100.00;93218.38;2595909;22;20060;-85
2023/03/01 04:48:19;;;;;;;23.25;16.20;;;;;;;-4.21;100.00;93219.03;2583575;22;20000;-87
2023/03/01 04:49:21;;;;;;;21.70;16.55;;;;;;;-4.04;100.00;93212.88;2570726;23;20001;-85
2023/03/01 04:50:30;;;;;;;21.88;16.42;;;;;;;-4.03;100.00;93218.88;2574752;22;20017;-86
2023/03/01 04:51:34;;;;;;;20.75;15.93;;;;;;;-4.09;100.00;93215.69;2570634;23;20012;-86
2023/03/01 04:52:36;;;;;;;26.73;16.83;;;;;;;-4.08;100.00;93218.00;2583734;22;20071;-85
2023/03/01 04:53:38;;;;;;;24.80;16.63;;;;;;;-4.13;100.00;93215.56;2582819;23;20007;-85
2023/03/01 04:54:39;;;;;;;23.75;16.92;;;;;;;-3.84;100.00;93204.25;2558377;23;20364;-85
2023/03/01 04:55:41;;;;;;;22.45;17.10;;;;;;;-3.89;100.00;93211.53;2558538;23;20029;-87